Orbital elements of SL-8 DEB
| Launched | 14 March 1965 |
| Flight ended | – |
| Launch site | Tyuratam Missile and Space Center, Kazakhstan (Also known as Baikonur Cosmodrome) |
| Owner | Commonwealth of Independent States (former USSR) |
| NORAD ID | 1478 |
| Date fetched |
Epoch osculation |
Inc. [°] |
Ecc. | RA asc node [hr] |
Arg Peri. [°] |
Mean anom [°] |
Mean motion [rev/day] |
Abs. mag |
| Date fetched |
Epoch osculation |
Inc. [°] |
Ecc. | RA asc node [hr] |
Arg Peri. [°] |
Mean anom [°] |
Mean motion [rev/day] |
Abs. mag |
| 2026 May 05 17:57 | 2026 May 05 10:13:19 | 56.0742 | 0.05879 | 8.5042 | 164.7522 | 197.2033 | 13.55950 | – |
| 2026 May 04 17:57 | 2026 Apr 30 13:26:48 | 56.0740 | 0.05884 | 9.5693 | 156.7969 | 197.2033 | 13.55950 | – |
| 2026 May 03 17:57 | 2026 Apr 30 13:26:48 | 56.0740 | 0.05884 | 9.5693 | 156.7969 | 197.2033 | 13.55950 | – |
| 2026 May 02 17:57 | 2026 Apr 30 13:26:48 | 56.0740 | 0.05884 | 9.5693 | 156.7969 | 197.2033 | 13.55950 | – |
| 2026 May 01 17:56 | 2026 Apr 30 13:26:48 | 56.0740 | 0.05884 | 9.5693 | 156.7969 | 197.2033 | 13.55950 | – |
| 2026 Apr 30 17:56 | 2026 Apr 30 13:26:48 | 56.0740 | 0.05884 | 9.5693 | 156.7969 | 197.2033 | 13.55950 | – |
| 2026 Apr 29 17:57 | 2026 Apr 24 10:35:29 | 56.0746 | 0.05891 | 10.9089 | 146.7838 | 197.2033 | 13.55950 | – |
| 2026 Apr 28 17:56 | 2026 Apr 24 10:35:29 | 56.0746 | 0.05891 | 10.9089 | 146.7838 | 197.2033 | 13.55950 | – |
| 2026 Apr 27 17:58 | 2026 Apr 24 10:35:29 | 56.0746 | 0.05891 | 10.9089 | 146.7838 | 197.2033 | 13.55950 | – |
| 2026 Apr 26 17:58 | 2026 Apr 24 10:35:29 | 56.0746 | 0.05891 | 10.9089 | 146.7838 | 197.2033 | 13.55950 | – |
| 2026 Apr 25 17:58 | 2026 Apr 24 10:35:29 | 56.0746 | 0.05891 | 10.9089 | 146.7838 | 197.2033 | 13.55950 | – |
| 2026 Apr 24 17:59 | 2026 Apr 24 10:35:29 | 56.0746 | 0.05891 | 10.9089 | 146.7838 | 197.2033 | 13.55950 | – |
| 2026 Apr 23 17:57 | 2026 Apr 19 12:02:40 | 56.0751 | 0.05896 | 11.9901 | 138.7035 | 197.2033 | 13.55950 | – |
| 2026 Apr 22 17:57 | 2026 Apr 19 12:02:40 | 56.0751 | 0.05896 | 11.9901 | 138.7035 | 197.2033 | 13.55950 | – |
| 2026 Apr 21 17:57 | 2026 Apr 19 12:02:40 | 56.0751 | 0.05896 | 11.9901 | 138.7035 | 197.2033 | 13.55950 | – |
| 2026 Apr 20 17:57 | 2026 Apr 19 12:02:40 | 56.0751 | 0.05896 | 11.9901 | 138.7035 | 197.2033 | 13.55950 | – |
| 2026 Apr 19 17:58 | 2026 Apr 19 12:02:40 | 56.0751 | 0.05896 | 11.9901 | 138.7035 | 197.2033 | 13.55950 | – |
| 2026 Apr 18 17:56 | 2026 Apr 13 07:25:01 | 56.0755 | 0.05901 | 13.3457 | 128.5753 | 197.2033 | 13.55950 | – |
| 2026 Apr 16 17:57 | 2026 Apr 13 07:25:01 | 56.0755 | 0.05901 | 13.3457 | 128.5753 | 197.2033 | 13.55950 | – |
| 2026 Apr 14 17:57 | 2026 Apr 13 07:25:01 | 56.0755 | 0.05901 | 13.3457 | 128.5753 | 197.2033 | 13.55950 | – |
| 2026 Apr 13 17:57 | 2026 Apr 13 07:25:01 | 56.0755 | 0.05901 | 13.3457 | 128.5753 | 197.2033 | 13.55950 | – |
| 2026 Apr 12 17:57 | 2026 Apr 08 14:10:32 | 56.0751 | 0.05906 | 14.3786 | 120.8624 | 197.2033 | 13.55950 | – |
| 2026 Apr 11 17:57 | 2026 Apr 08 14:10:32 | 56.0751 | 0.05906 | 14.3786 | 120.8624 | 197.2033 | 13.55950 | – |
| 2026 Apr 10 17:58 | 2026 Apr 08 14:10:32 | 56.0751 | 0.05906 | 14.3786 | 120.8624 | 197.2033 | 13.55950 | – |
| 2026 Apr 09 18:01 | 2026 Apr 08 14:10:32 | 56.0751 | 0.05906 | 14.3786 | 120.8624 | 197.2033 | 13.55950 | – |
| 2026 Apr 08 17:57 | 2026 Apr 08 14:10:32 | 56.0751 | 0.05906 | 14.3786 | 120.8624 | 197.2033 | 13.55950 | – |